Time;durP1;ratioP1;P1;durP2;ratioP2;P2;SDS_P1;SDS_P2;PMS_P1;PMS_P2;Temp;Humidity;BMP_temperature;BMP_pressure;BME280_temperature;BME280_humidity;BME280_pressure;Samples;Min_cycle;Max_cycle;Signal;HPM_P1;HPM_P2
2021/12/10 00:00:20;;;;;;;10.37;2.20;;;1.00;99.90;;;;;;4973139;28;20042;-79
2021/12/10 00:02:46;;;;;;;8.07;2.50;;;1.00;99.90;;;;;;4973388;28;20015;-79
2021/12/10 00:05:15;;;;;;;9.37;2.23;;;1.00;99.90;;;;;;4955756;28;20031;-79
2021/12/10 00:07:42;;;;;;;7.47;2.10;;;0.90;99.90;;;;;;4955634;28;20037;-79
2021/12/10 00:10:15;;;;;;;6.50;2.37;;;1.00;99.90;;;;;;4972979;28;20106;-79
2021/12/10 00:12:49;;;;;;;4.73;1.90;;;1.00;99.90;;;;;;4973075;28;20120;-79
2021/12/10 00:15:15;;;;;;;5.60;1.90;;;1.00;99.90;;;;;;4972927;28;20039;-79
2021/12/10 00:17:40;;;;;;;6.70;2.07;;;0.90;99.90;;;;;;4973219;28;20515;-79
2021/12/10 00:20:07;;;;;;;7.80;2.07;;;0.90;99.90;;;;;;4972948;28;20038;-79
2021/12/10 00:22:40;;;;;;;8.87;2.63;;;0.90;99.90;;;;;;4972626;28;20533;-79
2021/12/10 00:25:18;;;;;;;5.07;1.90;;;0.90;99.90;;;;;;4973320;28;20160;-79
2021/12/10 00:27:45;;;;;;;6.80;2.17;;;0.90;99.90;;;;;;4973312;28;20357;-79
2021/12/10 00:30:24;;;;;;;7.43;1.80;;;0.90;99.90;;;;;;4955315;28;20031;-79
2021/12/10 00:33:03;;;;;;;7.57;2.20;;;0.90;99.90;;;;;;4972881;28;20031;-79
2021/12/10 00:35:32;;;;;;;6.30;2.10;;;0.80;99.90;;;;;;4973081;28;20089;-79
2021/12/10 00:37:59;;;;;;;8.17;2.00;;;0.80;99.90;;;;;;4972809;28;20084;-79
2021/12/10 00:40:26;;;;;;;4.60;1.83;;;0.80;99.90;;;;;;4955192;28;20038;-79
2021/12/10 00:42:53;;;;;;;7.87;2.10;;;0.80;99.90;;;;;;4972725;28;20030;-79
2021/12/10 00:45:20;;;;;;;8.07;2.20;;;0.80;99.90;;;;;;4955065;28;20035;-79
2021/12/10 00:47:47;;;;;;;4.97;1.70;;;0.80;99.90;;;;;;4955086;28;20027;-79
2021/12/10 00:50:20;;;;;;;9.40;2.10;;;0.80;99.90;;;;;;4972364;28;20023;-79
2021/12/10 00:52:47;;;;;;;5.73;1.70;;;0.80;99.90;;;;;;4955619;28;20053;-79
2021/12/10 00:55:14;;;;;;;7.90;1.70;;;0.80;99.90;;;;;;4955038;28;20045;-79
2021/12/10 00:57:39;;;;;;;8.27;2.30;;;0.80;99.90;;;;;;4972689;28;20031;-79
2021/12/10 01:00:12;;;;;;;6.10;2.13;;;0.80;99.90;;;;;;4972308;28;20095;-79
2021/12/10 01:02:38;;;;;;;7.53;2.50;;;0.80;99.90;;;;;;4972628;28;20054;-79
2021/12/10 01:05:05;;;;;;;6.30;2.50;;;0.80;99.90;;;;;;4954840;28;20058;-79
2021/12/10 01:07:33;;;;;;;6.03;2.33;;;0.80;99.90;;;;;;4972047;28;20037;-79
2021/12/10 01:10:04;;;;;;;6.67;2.27;;;0.70;99.90;;;;;;4972357;28;20403;-79
2021/12/10 01:12:42;;;;;;;5.80;1.87;;;0.70;99.90;;;;;;4972194;28;20046;-79
2021/12/10 01:26:23;;;;;;;6.00;1.70;;;0.60;99.90;;;;;;4972459;28;20045;-79
2021/12/10 01:28:59;;;;;;;7.23;2.50;;;0.60;99.90;;;;;;4972298;28;20106;-79
2021/12/10 01:31:27;;;;;;;6.50;2.17;;;0.60;99.90;;;;;;4972082;28;20041;-79
2021/12/10 01:33:54;;;;;;;5.23;1.53;;;0.60;99.90;;;;;;4953810;28;20045;-79
2021/12/10 01:36:22;;;;;;;6.70;1.80;;;0.60;99.90;;;;;;4954250;28;20106;-79
2021/12/10 01:38:50;;;;;;;6.70;2.00;;;0.60;99.90;;;;;;4972203;28;20035;-79
2021/12/10 01:41:18;;;;;;;4.33;2.10;;;0.50;99.90;;;;;;4971684;28;20031;-79
2021/12/10 01:43:48;;;;;;;5.83;2.07;;;0.50;99.90;;;;;;4971855;28;20426;-79
2021/12/10 01:46:18;;;;;;;6.07;2.07;;;0.50;99.90;;;;;;4971756;28;20422;-79
2021/12/10 01:48:48;;;;;;;8.00;2.17;;;0.40;99.90;;;;;;4971655;28;20472;-79
2021/12/10 01:51:17;;;;;;;8.20;1.80;;;0.40;99.90;;;;;;4971899;28;20038;-79
2021/12/10 01:53:45;;;;;;;5.97;2.07;;;0.40;99.90;;;;;;4954432;28;20035;-79
2021/12/10 01:56:17;;;;;;;12.33;2.30;;;0.40;99.90;;;;;;4954164;28;20436;-79
2021/12/10 01:58:44;;;;;;;7.70;2.20;;;0.30;99.90;;;;;;4971529;28;20027;-79
2021/12/10 02:01:15;;;;;;;7.63;1.87;;;0.30;99.90;;;;;;4971725;28;20030;-79
2021/12/10 02:03:43;;;;;;;6.07;2.13;;;0.20;99.90;;;;;;4971416;28;20046;-79
2021/12/10 02:06:09;;;;;;;4.30;1.80;;;0.20;99.90;;;;;;4971446;28;20364;-79
2021/12/10 02:08:36;;;;;;;5.93;1.70;;;0.20;99.90;;;;;;4971706;28;20051;-79
2021/12/10 02:11:03;;;;;;;5.63;1.83;;;0.10;99.90;;;;;;4971709;28;20135;-79
2021/12/10 02:13:29;;;;;;;7.30;1.80;;;0.10;99.90;;;;;;4971578;28;20046;-79
2021/12/10 02:15:55;;;;;;;8.07;1.90;;;0.00;99.90;;;;;;4971450;28;20108;-79
2021/12/10 02:18:21;;;;;;;8.20;1.73;;;0.00;99.90;;;;;;4954001;28;20054;-78
2021/12/10 02:21:02;;;;;;;5.87;1.90;;;-0.10;99.90;;;;;;4971702;28;20066;-79
2021/12/10 02:23:39;;;;;;;3.67;1.50;;;-0.10;99.90;;;;;;4971514;28;20035;-78
2021/12/10 02:26:07;;;;;;;4.60;2.00;;;-0.20;99.90;;;;;;4971624;28;20038;-79
2021/12/10 02:28:34;;;;;;;4.40;2.00;;;-0.20;99.90;;;;;;4971223;28;20037;-78
2021/12/10 02:30:59;;;;;;;4.30;2.00;;;-0.30;99.90;;;;;;4971713;28;20034;-79
2021/12/10 02:33:26;;;;;;;5.93;2.47;;;-0.30;99.90;;;;;;4971523;28;20035;-79
2021/12/10 02:35:52;;;;;;;4.27;1.87;;;-0.30;99.90;;;;;;4970941;28;20451;-78
2021/12/10 02:38:19;;;;;;;4.57;1.77;;;-0.40;99.90;;;;;;4971552;28;20030;-78
2021/12/10 02:40:48;;;;;;;3.87;1.87;;;-0.40;99.90;;;;;;4971476;28;20034;-79
2021/12/10 02:43:15;;;;;;;5.80;2.00;;;-0.40;99.90;;;;;;4971031;28;20015;-78
2021/12/10 02:45:44;;;;;;;5.73;1.73;;;-0.50;99.90;;;;;;4971073;28;20027;-78
2021/12/10 02:48:09;;;;;;;9.90;2.93;;;-0.50;99.90;;;;;;4974608;28;20035;-77
2021/12/10 02:50:36;;;;;;;5.27;1.97;;;-0.60;99.90;;;;;;4971430;28;20050;-81
2021/12/10 02:53:03;;;;;;;9.57;2.10;;;-0.60;99.90;;;;;;4954157;28;20529;-81
2021/12/10 02:55:30;;;;;;;4.60;1.77;;;-0.60;99.90;;;;;;4971490;28;20027;-81
2021/12/10 02:57:59;;;;;;;9.80;1.97;;;-0.70;99.90;;;;;;4970956;28;20031;-81
2021/12/10 03:00:29;;;;;;;5.93;2.00;;;-0.70;99.90;;;;;;4954033;28;20030;-81
2021/12/10 03:02:56;;;;;;;4.67;2.17;;;-0.70;99.90;;;;;;4971356;28;20023;-81
2021/12/10 03:05:22;;;;;;;8.17;2.33;;;-0.80;99.90;;;;;;4971322;28;20030;-81
2021/12/10 03:07:48;;;;;;;4.73;1.73;;;-0.80;99.90;;;;;;4971256;28;20038;-81
2021/12/10 03:10:20;;;;;;;4.40;1.83;;;-0.90;99.90;;;;;;4953661;28;20116;-81
2021/12/10 03:12:46;;;;;;;6.90;2.37;;;-0.90;99.90;;;;;;4970985;28;20047;-81
2021/12/10 03:15:13;;;;;;;9.83;3.17;;;-0.90;99.90;;;;;;4970862;28;20039;-81
2021/12/10 03:17:39;;;;;;;7.43;2.13;;;-1.00;99.90;;;;;;4970640;28;20069;-81
2021/12/10 03:20:08;;;;;;;5.10;2.10;;;-1.00;99.90;;;;;;4971119;28;20420;-80
2021/12/10 03:22:37;;;;;;;5.10;2.07;;;-1.10;99.90;;;;;;4970846;28;20029;-80
2021/12/10 03:25:07;;;;;;;3.10;1.80;;;-1.10;99.90;;;;;;4970749;28;20031;-80
2021/12/10 03:27:33;;;;;;;6.33;2.13;;;-1.20;99.90;;;;;;4970990;28;20033;-80
2021/12/10 03:29:58;;;;;;;5.73;2.23;;;-1.20;99.90;;;;;;4970849;28;20111;-80
2021/12/10 03:32:30;;;;;;;6.03;2.20;;;-1.20;99.90;;;;;;4970700;28;20106;-81
2021/12/10 03:34:58;;;;;;;7.57;2.13;;;-1.20;99.90;;;;;;4970857;28;20023;-80
2021/12/10 03:37:25;;;;;;;5.50;2.40;;;-1.30;99.90;;;;;;4970577;28;20034;-80
2021/12/10 03:39:51;;;;;;;5.20;2.40;;;-1.30;99.90;;;;;;4971013;28;20129;-80
2021/12/10 03:42:17;;;;;;;4.20;2.00;;;-1.30;99.90;;;;;;4970377;28;20041;-81
2021/12/10 03:44:43;;;;;;;6.17;2.60;;;-1.30;99.90;;;;;;4970754;28;20115;-81
2021/12/10 03:47:10;;;;;;;6.07;2.10;;;-1.40;99.90;;;;;;4970033;28;20054;-80
2021/12/10 03:49:40;;;;;;;4.33;2.40;;;-1.40;99.90;;;;;;4970687;28;20034;-80
2021/12/10 03:52:07;;;;;;;6.50;2.70;;;-1.40;99.90;;;;;;4953214;28;20475;-80
2021/12/10 03:54:34;;;;;;;13.23;7.00;;;-1.40;99.90;;;;;;4970706;28;20023;-80
2021/12/10 03:57:00;;;;;;;11.70;7.17;;;-1.40;99.90;;;;;;4952225;28;20034;-80
2021/12/10 03:59:26;;;;;;;7.37;3.70;;;-1.40;99.90;;;;;;4970563;28;20019;-80
2021/12/10 04:01:56;;;;;;;7.37;3.50;;;-1.40;99.90;;;;;;4970596;28;20098;-80
2021/12/10 04:04:27;;;;;;;3.90;2.73;;;-1.50;99.90;;;;;;4970653;28;20061;-80
2021/12/10 04:06:55;;;;;;;5.67;3.10;;;-1.50;99.90;;;;;;4970115;28;20034;-80
2021/12/10 04:09:21;;;;;;;6.23;2.77;;;-1.50;99.90;;;;;;4970530;28;20534;-80
2021/12/10 04:11:47;;;;;;;7.40;3.20;;;-1.50;99.90;;;;;;4953127;28;20035;-80
2021/12/10 04:14:13;;;;;;;5.33;2.80;;;-1.60;99.90;;;;;;4970475;28;20054;-81
2021/12/10 04:16:38;;;;;;;6.10;3.43;;;-1.60;99.90;;;;;;4970337;28;20377;-80
2021/12/10 04:19:07;;;;;;;5.97;3.17;;;-1.60;99.90;;;;;;4970055;28;20031;-80
2021/12/10 04:21:39;;;;;;;3.27;2.40;;;-1.70;99.90;;;;;;4951234;29;20031;-80
2021/12/10 04:24:07;;;;;;;4.93;2.90;;;-1.70;99.90;;;;;;4950935;29;20058;-80
2021/12/10 04:26:32;;;;;;;8.70;5.53;;;-1.70;99.90;;;;;;4964764;28;20035;-79
2021/12/10 04:28:58;;;;;;;6.63;4.23;;;-1.70;99.90;;;;;;4970181;28;20026;-80
2021/12/10 04:31:24;;;;;;;3.57;2.20;;;-1.80;99.90;;;;;;4970072;28;20057;-80
2021/12/10 04:33:49;;;;;;;5.73;3.20;;;-1.80;99.90;;;;;;4970108;28;20026;-80
2021/12/10 04:36:17;;;;;;;9.77;3.30;;;-1.80;99.90;;;;;;4970187;28;20038;-80
2021/12/10 04:38:43;;;;;;;5.43;3.10;;;-1.80;99.90;;;;;;4952650;28;20127;-80
2021/12/10 04:41:10;;;;;;;4.57;2.80;;;-1.80;99.90;;;;;;4969982;28;20030;-79
2021/12/10 04:43:38;;;;;;;5.73;2.50;;;-1.90;99.90;;;;;;4970004;28;20022;-79
2021/12/10 04:46:04;;;;;;;6.53;2.70;;;-1.90;99.90;;;;;;4969453;28;20121;-80
2021/12/10 04:48:41;;;;;;;8.07;2.60;;;-1.90;99.90;;;;;;4970178;28;20031;-79
2021/12/10 04:51:06;;;;;;;7.37;2.87;;;-1.90;99.90;;;;;;4969894;28;20030;-79
2021/12/10 04:53:32;;;;;;;6.10;2.63;;;-2.00;99.90;;;;;;4969406;28;20023;-79
2021/12/10 04:55:57;;;;;;;4.80;2.40;;;-2.00;99.90;;;;;;4969824;28;20547;-79
2021/12/10 04:58:24;;;;;;;3.40;2.70;;;-2.00;99.90;;;;;;4952440;28;20027;-79
2021/12/10 05:00:50;;;;;;;6.77;3.43;;;-2.00;99.90;;;;;;4969823;28;20468;-79
2021/12/10 05:03:17;;;;;;;7.20;3.73;;;-2.00;99.90;;;;;;4969431;28;20042;-79
2021/12/10 05:05:45;;;;;;;9.20;3.03;;;-1.90;99.90;;;;;;4969470;28;20506;-79
2021/12/10 05:08:13;;;;;;;6.17;2.60;;;-2.00;99.90;;;;;;4969113;28;20101;-79
2021/12/10 05:10:39;;;;;;;4.97;2.67;;;-2.00;99.90;;;;;;4969243;28;20459;-79
2021/12/10 05:13:06;;;;;;;5.10;2.30;;;-2.00;99.90;;;;;;4969035;28;20066;-79
2021/12/10 05:15:35;;;;;;;4.63;2.40;;;-2.10;99.90;;;;;;4969489;28;20395;-79
2021/12/10 05:18:01;;;;;;;5.70;3.10;;;-2.10;99.90;;;;;;4969093;28;20476;-79
2021/12/10 05:20:35;;;;;;;37.50;18.87;;;-2.10;99.90;;;;;;4952035;28;20034;-79
2021/12/10 05:23:02;;;;;;;20.07;12.87;;;-2.10;99.90;;;;;;4953256;28;20038;-79
2021/12/10 05:25:29;;;;;;;9.97;8.30;;;-2.20;99.90;;;;;;4952136;28;20031;-79
2021/12/10 05:27:56;;;;;;;9.80;7.83;;;-2.20;99.90;;;;;;4951312;28;20035;-79
2021/12/10 05:30:27;;;;;;;6.87;4.83;;;-2.20;99.90;;;;;;4968656;28;20034;-79
2021/12/10 05:32:53;;;;;;;6.47;4.87;;;-2.20;99.90;;;;;;4968298;28;20026;-79
2021/12/10 05:35:19;;;;;;;7.17;5.40;;;-2.30;99.90;;;;;;4968442;28;20107;-80
2021/12/10 05:37:44;;;;;;;6.10;4.57;;;-2.30;99.90;;;;;;4968274;28;20554;-80
2021/12/10 05:40:13;;;;;;;6.60;2.80;;;-2.30;99.90;;;;;;4968537;28;20062;-80
2021/12/10 05:42:40;;;;;;;5.43;2.40;;;-2.30;99.90;;;;;;4967729;28;20120;-80
2021/12/10 05:45:07;;;;;;;5.37;2.80;;;-2.40;99.90;;;;;;4969133;28;20034;-79
2021/12/10 05:47:32;;;;;;;4.57;2.57;;;-2.40;99.90;;;;;;4968826;28;20031;-79
2021/12/10 05:49:58;;;;;;;5.40;2.33;;;-2.40;99.90;;;;;;4968474;28;20089;-79
2021/12/10 05:52:24;;;;;;;4.37;2.97;;;-2.40;99.90;;;;;;4968820;28;20101;-79
2021/12/10 05:54:52;;;;;;;7.73;3.53;;;-2.50;99.90;;;;;;4968817;28;20034;-79
2021/12/10 05:57:18;;;;;;;5.13;3.20;;;-2.50;99.90;;;;;;4951335;28;20492;-79
2021/12/10 05:59:44;;;;;;;8.03;3.63;;;-2.50;99.90;;;;;;4968518;28;20395;-79
2021/12/10 06:02:10;;;;;;;9.03;5.47;;;-2.50;99.90;;;;;;4968527;28;20031;-79
2021/12/10 06:04:36;;;;;;;8.07;4.77;;;-2.50;99.90;;;;;;4968933;28;20080;-79
2021/12/10 06:07:04;;;;;;;9.03;6.17;;;-2.50;99.90;;;;;;4968654;28;20041;-79
2021/12/10 06:09:29;;;;;;;7.70;4.63;;;-2.50;99.90;;;;;;4968757;28;20054;-78
2021/12/10 06:11:55;;;;;;;7.33;4.53;;;-2.50;99.90;;;;;;4968383;28;20070;-79
2021/12/10 06:14:20;;;;;;;7.00;4.73;;;-2.50;99.90;;;;;;4968129;28;20501;-78
2021/12/10 06:16:46;;;;;;;19.10;9.63;;;-2.50;99.90;;;;;;4951202;28;20035;-78
2021/12/10 06:19:12;;;;;;;38.93;19.50;;;-2.60;99.90;;;;;;4951125;28;20489;-78
2021/12/10 06:21:38;;;;;;;7.83;4.90;;;-2.60;99.90;;;;;;4971423;28;20035;-78
2021/12/10 06:24:04;;;;;;;9.33;3.60;;;-2.50;99.90;;;;;;4971735;28;20034;-78
2021/12/10 06:26:30;;;;;;;6.50;2.60;;;-2.40;99.90;;;;;;4972197;28;20096;-78
2021/12/10 06:28:57;;;;;;;4.37;2.50;;;-2.50;99.90;;;;;;4971959;28;20105;-80
2021/12/10 06:31:23;;;;;;;4.07;2.27;;;-2.50;99.90;;;;;;4966328;28;20043;-79
2021/12/10 06:33:49;;;;;;;6.70;5.00;;;-2.60;99.90;;;;;;4959746;28;20368;-81
2021/12/10 06:36:18;;;;;;;6.17;3.30;;;-2.50;99.90;;;;;;4953012;28;20024;-80
2021/12/10 06:38:44;;;;;;;9.87;2.50;;;-2.50;99.90;;;;;;4951908;28;20027;-81
2021/12/10 06:41:11;;;;;;;6.33;4.17;;;-2.50;99.90;;;;;;4957321;28;20053;-80
2021/12/10 06:43:37;;;;;;;4.20;3.17;;;-2.50;99.90;;;;;;4953186;28;20027;-79
2021/12/10 06:46:05;;;;;;;4.93;2.40;;;-2.50;99.90;;;;;;4953640;28;20088;-67
2021/12/10 06:48:30;;;;;;;4.53;3.13;;;-2.50;99.90;;;;;;4961254;28;20653;-76
2021/12/10 06:51:01;;;;;;;5.80;3.07;;;-2.50;99.90;;;;;;4976531;28;20425;-78
2021/12/10 06:53:29;;;;;;;6.73;2.93;;;-2.60;99.90;;;;;;4976726;28;20041;-78
2021/12/10 06:55:56;;;;;;;9.33;2.90;;;-2.60;99.90;;;;;;4959803;28;20459;-78
2021/12/10 06:58:23;;;;;;;15.10;6.60;;;-2.60;99.90;;;;;;4976271;28;20088;-78
2021/12/10 07:00:56;;;;;;;12.70;5.93;;;-2.70;99.90;;;;;;4976745;28;20096;-78
2021/12/10 07:03:26;;;;;;;12.37;5.90;;;-2.70;99.90;;;;;;4958412;28;20058;-78
2021/12/10 07:05:54;;;;;;;8.57;4.50;;;-2.70;99.90;;;;;;4976680;28;20048;-78
2021/12/10 07:08:23;;;;;;;8.60;4.17;;;-2.60;99.90;;;;;;4975004;28;20096;-78
2021/12/10 07:10:49;;;;;;;6.83;3.40;;;-2.70;99.90;;;;;;4976150;28;20114;-78
2021/12/10 07:13:15;;;;;;;8.47;3.67;;;-2.70;99.90;;;;;;4975173;28;20048;-78
2021/12/10 07:15:44;;;;;;;6.77;4.03;;;-2.60;99.90;;;;;;4975351;28;20118;-78
2021/12/10 07:18:10;;;;;;;8.77;3.53;;;-2.60;99.90;;;;;;4989684;28;20422;-78
2021/12/10 07:20:38;;;;;;;6.37;2.70;;;-2.60;99.90;;;;;;4985012;28;20061;-78
2021/12/10 07:23:04;;;;;;;8.47;2.93;;;-2.60;99.90;;;;;;4970912;28;20030;-79
2021/12/10 07:25:30;;;;;;;5.63;2.60;;;-2.60;99.90;;;;;;4971433;28;20447;-78
2021/12/10 07:27:56;;;;;;;6.37;2.40;;;-2.60;99.90;;;;;;4972003;28;20077;-78
2021/12/10 07:30:24;;;;;;;3.90;2.17;;;-2.50;99.90;;;;;;4971861;28;20041;-78
2021/12/10 07:32:50;;;;;;;7.10;2.50;;;-2.50;99.90;;;;;;4970316;28;20031;-79
2021/12/10 07:35:17;;;;;;;6.10;2.53;;;-2.50;99.90;;;;;;4971042;28;20533;-78
2021/12/10 07:37:43;;;;;;;5.93;3.30;;;-2.50;99.90;;;;;;4972082;28;20033;-75
2021/12/10 07:40:13;;;;;;;111.67;35.57;;;-2.40;99.90;;;;;;4956519;28;20034;-75
2021/12/10 07:42:39;;;;;;;24.60;9.33;;;-2.40;99.90;;;;;;4972823;28;20518;-80
2021/12/10 07:45:06;;;;;;;32.10;14.87;;;-2.40;99.90;;;;;;4971899;28;20107;-80
2021/12/10 07:47:35;;;;;;;15.90;7.73;;;-2.30;99.90;;;;;;4971246;28;20101;-79
2021/12/10 07:50:04;;;;;;;13.67;5.97;;;-2.30;99.90;;;;;;4970780;28;20058;-79
2021/12/10 07:52:33;;;;;;;8.13;4.73;;;-2.20;99.90;;;;;;4971229;28;20031;-79
2021/12/10 07:55:00;;;;;;;7.80;4.37;;;-2.20;99.90;;;;;;4971363;28;20084;-79
2021/12/10 07:57:27;;;;;;;11.70;6.83;;;-2.20;99.90;;;;;;4956372;28;20130;-77
2021/12/10 07:59:53;;;;;;;15.87;8.97;;;-2.10;99.90;;;;;;4962569;28;20102;-76
2021/12/10 08:02:19;;;;;;;14.77;8.10;;;-2.00;99.90;;;;;;4972858;28;20069;-76
2021/12/10 08:04:45;;;;;;;11.50;5.77;;;-2.00;99.90;;;;;;4973300;28;20434;-76
2021/12/10 08:07:13;;;;;;;8.17;5.00;;;-1.90;99.90;;;;;;4972896;28;20039;-76
2021/12/10 08:09:39;;;;;;;8.63;5.10;;;-1.90;99.90;;;;;;4954867;28;20054;-76
2021/12/10 08:12:05;;;;;;;10.63;5.20;;;-1.90;99.90;;;;;;4974704;28;20340;-76
2021/12/10 08:14:31;;;;;;;13.03;5.20;;;-1.80;99.90;;;;;;4956069;28;20437;-76
2021/12/10 08:16:56;;;;;;;10.87;5.47;;;-1.80;99.90;;;;;;4970696;28;20038;-76
2021/12/10 08:19:22;;;;;;;10.60;5.37;;;-1.70;99.90;;;;;;4956243;28;20113;-77
2021/12/10 08:21:51;;;;;;;7.27;5.07;;;-1.60;99.90;;;;;;4971882;28;20763;-76
2021/12/10 08:24:17;;;;;;;7.37;4.60;;;-1.50;99.90;;;;;;4972768;28;20435;-76
2021/12/10 08:26:43;;;;;;;7.93;4.93;;;-1.40;99.90;;;;;;4972663;28;20104;-76
2021/12/10 08:29:12;;;;;;;9.20;5.27;;;-1.30;99.90;;;;;;4960101;28;20107;-76
2021/12/10 08:31:39;;;;;;;7.83;4.33;;;-1.20;99.90;;;;;;4971703;28;20023;-77
2021/12/10 08:34:06;;;;;;;6.17;4.13;;;-1.20;99.90;;;;;;4981160;28;20030;-77
2021/12/10 08:36:33;;;;;;;7.27;4.30;;;-1.10;99.90;;;;;;4983914;28;20390;-77
2021/12/10 08:39:00;;;;;;;8.50;4.33;;;-1.00;99.90;;;;;;4972464;28;20033;-79
2021/12/10 08:41:29;;;;;;;8.57;4.50;;;-1.00;99.90;;;;;;4971327;28;20041;-80
2021/12/10 08:43:56;;;;;;;7.30;4.20;;;-0.90;99.90;;;;;;4969260;28;20035;-80
2021/12/10 08:46:24;;;;;;;7.27;4.20;;;-0.90;99.90;;;;;;4969388;28;20485;-77
2021/12/10 08:48:51;;;;;;;5.10;3.90;;;-0.80;99.90;;;;;;4972497;28;20045;-77
2021/12/10 08:51:30;;;;;;;6.67;4.03;;;-0.80;99.90;;;;;;4972099;28;20118;-77
2021/12/10 08:54:00;;;;;;;9.03;6.10;;;-0.70;99.90;;;;;;4954550;28;20050;-80
2021/12/10 08:56:27;;;;;;;8.73;5.90;;;-0.70;99.90;;;;;;4970493;28;20034;-80
2021/12/10 08:58:53;;;;;;;9.20;6.47;;;-0.70;99.90;;;;;;4969452;28;20027;-80
2021/12/10 09:01:24;;;;;;;14.67;9.47;;;-0.60;99.90;;;;;;4964926;28;20050;-80
2021/12/10 09:03:52;;;;;;;13.10;8.97;;;-0.50;99.90;;;;;;4960694;28;20026;-80
2021/12/10 09:06:21;;;;;;;10.63;6.43;;;-0.40;99.90;;;;;;4970583;28;20045;-80
2021/12/10 09:08:48;;;;;;;7.20;4.73;;;-0.30;99.90;;;;;;4969625;28;20471;-80
2021/12/10 09:11:14;;;;;;;7.73;4.90;;;-0.30;99.90;;;;;;4951444;28;20149;-80
2021/12/10 09:13:41;;;;;;;7.53;5.70;;;-0.20;99.90;;;;;;4950247;29;20046;-80
2021/12/10 09:16:13;;;;;;;6.90;5.20;;;-0.10;99.90;;;;;;4950691;29;20035;-80
2021/12/10 09:18:40;;;;;;;12.03;5.23;;;-0.10;99.90;;;;;;4933378;29;20027;-77
2021/12/10 09:21:08;;;;;;;5.97;4.47;;;0.00;99.90;;;;;;4956442;28;20038;-76
2021/12/10 09:23:34;;;;;;;8.77;6.30;;;0.00;99.90;;;;;;4970394;28;20057;-76
2021/12/10 09:26:03;;;;;;;9.53;6.17;;;0.10;99.90;;;;;;4972657;28;20128;-76
2021/12/10 09:28:29;;;;;;;12.93;6.70;;;0.40;99.90;;;;;;4961641;28;20098;-76
2021/12/10 09:30:57;;;;;;;6.80;3.90;;;0.50;99.90;;;;;;4959838;28;20037;-76
2021/12/10 09:33:23;;;;;;;6.57;3.83;;;0.40;99.90;;;;;;4980673;28;20030;-77
2021/12/10 09:35:50;;;;;;;6.90;4.53;;;0.40;99.90;;;;;;4976276;28;20165;-77
2021/12/10 09:38:16;;;;;;;5.87;4.07;;;0.40;99.90;;;;;;4960741;28;20417;-77
2021/12/10 09:40:47;;;;;;;4.80;2.97;;;0.40;99.90;;;;;;4980782;28;20058;-77
2021/12/10 09:43:13;;;;;;;6.63;3.23;;;0.40;99.90;;;;;;4975829;28;20038;-77
2021/12/10 09:45:40;;;;;;;5.90;2.80;;;0.30;99.90;;;;;;4977110;28;20042;-77
2021/12/10 09:48:10;;;;;;;6.47;3.03;;;0.40;99.90;;;;;;4975790;28;20027;-77
2021/12/10 09:50:40;;;;;;;7.37;3.43;;;0.40;99.90;;;;;;4978803;28;20034;-77
2021/12/10 09:53:06;;;;;;;6.00;2.90;;;0.40;99.90;;;;;;4983639;28;20037;-77
2021/12/10 09:55:33;;;;;;;10.50;3.50;;;0.50;99.90;;;;;;4976958;28;20144;-77
2021/12/10 09:57:59;;;;;;;7.50;5.00;;;0.50;99.90;;;;;;4978466;28;20471;-77
2021/12/10 10:00:32;;;;;;;7.87;3.77;;;0.60;99.90;;;;;;4980379;28;20037;-77
2021/12/10 10:03:00;;;;;;;8.83;5.43;;;0.60;99.90;;;;;;4978286;28;20038;-77
2021/12/10 10:05:30;;;;;;;11.97;5.23;;;0.70;99.90;;;;;;4978745;28;21251;-77
2021/12/10 10:08:00;;;;;;;6.97;3.50;;;0.80;99.90;;;;;;4979227;28;20034;-77
2021/12/10 10:10:28;;;;;;;6.23;3.57;;;0.90;99.90;;;;;;4982721;28;20095;-77
2021/12/10 10:12:55;;;;;;;9.30;4.20;;;1.00;99.90;;;;;;4980737;28;20043;-77
2021/12/10 10:15:31;;;;;;;5.70;3.60;;;1.10;99.90;;;;;;4963121;28;20038;-77
2021/12/10 10:17:59;;;;;;;7.93;4.13;;;1.20;99.90;;;;;;4960716;28;20034;-77
2021/12/10 10:20:28;;;;;;;6.37;3.27;;;1.30;99.90;;;;;;4980091;28;20031;-77
2021/12/10 10:22:54;;;;;;;13.93;6.37;;;1.30;99.90;;;;;;4958497;28;20077;-78
2021/12/10 10:25:22;;;;;;;14.60;7.00;;;1.30;99.90;;;;;;4957779;28;20452;-78
2021/12/10 10:27:48;;;;;;;25.47;11.10;;;1.30;99.90;;;;;;4980404;28;20023;-78
2021/12/10 10:30:32;;;;;;;11.00;6.40;;;1.30;99.90;;;;;;4960792;28;20031;-78
2021/12/10 10:33:02;;;;;;;5.97;3.90;;;1.40;99.90;;;;;;4979681;28;20034;-78
2021/12/10 10:35:36;;;;;;;7.10;3.87;;;1.50;99.90;;;;;;4962627;28;20026;-78
2021/12/10 10:38:03;;;;;;;7.23;3.40;;;1.50;99.90;;;;;;4972827;28;20027;-78
2021/12/10 10:40:34;;;;;;;7.97;3.00;;;1.40;99.90;;;;;;4971877;28;20498;-78
2021/12/10 10:43:01;;;;;;;6.67;3.40;;;1.40;99.90;;;;;;4970984;28;20023;-79
2021/12/10 10:45:30;;;;;;;4.70;3.17;;;1.40;99.90;;;;;;4970998;28;20538;-78
2021/12/10 10:47:57;;;;;;;4.40;3.10;;;1.50;99.90;;;;;;4970818;28;20379;-78
2021/12/10 10:50:36;;;;;;;5.20;3.27;;;1.40;99.90;;;;;;4953533;28;20038;-78
2021/12/10 10:53:08;;;;;;;8.60;3.30;;;1.40;99.90;;;;;;4953914;28;20548;-78
2021/12/10 10:55:42;;;;;;;6.07;2.67;;;1.50;99.90;;;;;;4970765;28;20375;-78
2021/12/10 10:58:11;;;;;;;12.43;2.70;;;1.50;99.90;;;;;;4971496;28;20081;-78
2021/12/10 11:01:07;;;;;;;7.20;2.93;;;1.60;99.90;;;;;;4971163;28;20027;-76
2021/12/10 11:03:40;;;;;;;4.93;3.00;;;1.60;99.90;;;;;;4971065;28;20042;-76
2021/12/10 11:06:13;;;;;;;7.77;4.33;;;1.60;99.90;;;;;;4970722;28;20038;-76
2021/12/10 11:08:45;;;;;;;4.33;3.00;;;1.70;99.90;;;;;;4973860;28;20035;-76
2021/12/10 11:11:35;;;;;;;4.60;3.07;;;1.70;99.90;;;;;;4974011;28;20109;-76
2021/12/10 11:14:21;;;;;;;8.37;3.87;;;1.70;99.90;;;;;;4973788;28;20042;-76
2021/12/10 11:16:49;;;;;;;5.47;3.10;;;1.90;99.90;;;;;;4973903;28;20043;-76
2021/12/10 11:19:24;;;;;;;5.20;3.40;;;1.90;99.90;;;;;;4974114;28;20478;-76
2021/12/10 11:21:56;;;;;;;4.95;3.05;;;2.00;99.90;;;;;;4974247;28;20081;-76
2021/12/10 11:24:54;;;;;;;8.83;3.87;;;2.00;99.90;;;;;;4974159;28;20455;-76
2021/12/10 11:27:34;;;;;;;5.60;3.17;;;2.20;99.90;;;;;;4973952;28;20111;-76
2021/12/10 11:30:03;;;;;;;5.00;2.43;;;2.20;99.90;;;;;;4973806;28;20039;-76
2021/12/10 11:32:39;;;;;;;4.70;2.83;;;2.20;99.90;;;;;;4974000;28;20034;-76
2021/12/10 11:35:16;;;;;;;9.80;3.37;;;2.10;99.90;;;;;;4973824;28;20026;-77
2021/12/10 11:37:59;;;;;;;5.77;3.60;;;2.20;99.90;;;;;;4957367;28;20035;-79
2021/12/10 11:40:47;;;;;;;8.67;3.40;;;2.20;99.90;;;;;;4974816;28;20053;-80
2021/12/10 11:43:19;;;;;;;5.53;3.00;;;2.20;99.90;;;;;;4975095;28;20027;-79
2021/12/10 11:46:15;;;;;;;4.73;2.90;;;2.20;99.90;;;;;;4974065;28;20047;-76
2021/12/10 11:49:02;;;;;;;6.03;3.20;;;2.20;99.90;;;;;;4974816;28;20023;-79
2021/12/10 11:51:39;;;;;;;4.80;2.77;;;2.20;99.90;;;;;;4977439;28;20463;-79
2021/12/10 11:54:18;;;;;;;4.20;2.70;;;2.20;99.90;;;;;;4977555;28;20026;-79
2021/12/10 11:56:51;;;;;;;5.17;3.10;;;2.10;99.90;;;;;;4977664;28;20676;-79
2021/12/10 11:59:22;;;;;;;7.23;3.10;;;2.20;99.90;;;;;;4960318;28;20353;-79
2021/12/10 12:02:01;;;;;;;7.67;4.50;;;2.10;99.90;;;;;;4977185;28;20023;-79
2021/12/10 12:04:44;;;;;;;6.27;3.80;;;2.20;99.90;;;;;;4957811;29;20134;-79
2021/12/10 12:07:34;;;;;;;5.03;3.77;;;2.20;99.90;;;;;;4940878;28;20023;-79
2021/12/10 12:10:18;;;;;;;4.77;3.67;;;2.20;99.90;;;;;;4957648;28;20038;-79
2021/12/10 12:12:47;;;;;;;4.70;3.17;;;2.20;99.90;;;;;;4972365;28;20034;-79
2021/12/10 12:15:29;;;;;;;4.37;3.20;;;2.20;99.90;;;;;;4972324;28;20023;-79
2021/12/10 12:17:57;;;;;;;6.43;3.10;;;2.10;99.90;;;;;;4971381;28;20763;-79
2021/12/10 12:20:27;;;;;;;7.40;3.20;;;2.20;99.90;;;;;;4971529;28;20073;-79
2021/12/10 12:25:55;;;;;;;4.63;3.07;;;2.20;99.90;;;;;;4972718;28;20121;-79
2021/12/10 12:28:24;;;;;;;3.50;2.40;;;2.20;99.90;;;;;;4972629;28;20148;-79
2021/12/10 12:31:02;;;;;;;4.80;2.60;;;2.20;99.90;;;;;;4974925;28;20049;-79
2021/12/10 12:33:49;;;;;;;8.53;2.40;;;2.30;99.90;;;;;;4978398;28;20035;-79
2021/12/10 12:36:16;;;;;;;7.27;2.70;;;2.30;99.90;;;;;;4954100;29;20035;-76
2021/12/10 12:38:47;;;;;;;5.43;2.83;;;2.20;99.90;;;;;;4953537;28;20035;-76
2021/12/10 12:41:21;;;;;;;9.47;3.20;;;2.20;99.90;;;;;;4936024;28;20459;-76
2021/12/10 12:44:15;;;;;;;4.37;2.80;;;2.20;99.90;;;;;;4953313;28;20028;-76
2021/12/10 12:47:05;;;;;;;7.20;2.93;;;2.10;99.90;;;;;;4953060;29;20023;-76
2021/12/10 12:49:49;;;;;;;6.10;3.07;;;2.00;99.90;;;;;;4965200;28;20094;-76
2021/12/10 12:52:16;;;;;;;5.20;2.77;;;2.00;99.90;;;;;;4971597;28;20372;-76
2021/12/10 12:55:04;;;;;;;7.97;2.67;;;1.90;99.90;;;;;;4953714;28;20379;-76
2021/12/10 12:57:40;;;;;;;5.20;2.60;;;1.90;99.90;;;;;;4954325;28;20378;-77
2021/12/10 13:00:14;;;;;;;3.93;2.53;;;1.80;99.90;;;;;;4972387;28;20084;-78
2021/12/10 13:02:41;;;;;;;5.17;2.50;;;1.80;99.90;;;;;;4980019;28;20046;-78
2021/12/10 13:05:09;;;;;;;3.90;2.23;;;1.80;99.90;;;;;;4968947;28;20072;-78
2021/12/10 13:07:36;;;;;;;8.53;2.57;;;1.80;99.90;;;;;;4980595;28;20023;-78
2021/12/10 13:10:05;;;;;;;5.00;2.40;;;1.80;99.90;;;;;;4978952;28;20063;-78
2021/12/10 13:12:51;;;;;;;5.40;2.23;;;1.70;99.90;;;;;;4980980;28;20084;-78
2021/12/10 13:15:24;;;;;;;9.03;2.53;;;1.70;99.90;;;;;;4971680;28;20019;-78